Aérodrome :
LOGIN :

S'inscrire | Disclaimer

   EN    FR    IT 

 










Légende :    VFR   VFR Marginal   IFR   IFR Intensif   IFR Très Intensif
Visi : 
Plafond : 
>= 8 km
>= 3000ft
5 à 8 km
1000 à 3000 ft
1500m à 5 km
500 à 1000 ft
800 à 1500m
200 à 500 ft
< 800m
< 200 ft
Symboles :   Orages  Brouillard  Fortes neiges  Fortes précipitations  Vent > 20 kt
SIGMETs :   Divers  Orages  Givrage  Turbulence  Onde Orograph.  Cendres Volcan.







- Altitude de l'aérodrome : 423 ft
- Code IATA : PIS
- Voir les cartes d'approche


LFBI - Poitiers

DERNIER METAR :
  • 142100Z AUTO 10004KT CAVOK 12/11 Q1021 TEMPO 0500 FG VV///

METARs EXPIRÉS :
  • 142030Z AUTO 10003KT CAVOK 12/11 Q1021 TEMPO 0500 FG VV///
  • 142000Z AUTO VRB01KT 7000 NSC 12/11 Q1021 TEMPO 3000 BR
  • 141930Z AUTO 09005KT CAVOK 13/12 Q1022 NOSIG
  • 141900Z AUTO 07004KT CAVOK 13/12 Q1022 NOSIG
  • 141830Z AUTO 11003KT CAVOK 13/11 Q1022 NOSIG

TAF AMD TAF LFBI
Valide du 14 à 18h jusqu'au 15 à 18h UTC


141839Z 1418/1518 11005KT CAVOK
TEMPO 1421/1508 3000 BR
PROB30
TEMPO 1422/1507 0500 FG VV///
Pas de NOTAMs connus pour ce terrain.



MET'MAP, la Météo Aéronautique d'un coup d'oeil ! - Copyright ORBIFLY Décembre 2007 - Disclaimer

ORBIFLY MET'MAP TEAM :

Programmation & Développement : Alexandra Zaïnal
Conception & Développement : Baudouin d'Aumeries
Co-Programmation & Développement : Marc-Olivier Méhu
Soutien technique & logistique : Manuel Goepfert

Contact : metmap@orbifly.com




SOURCES & CREDITS :

   NOAA